AirNav   Everest Fuels
 
 671 users online  

FA41 Mosquito Control Heliport
Jacksonville, Florida, USA

GOING TO JACKSONVILLE?


FAA INFORMATION EFFECTIVE 05 DECEMBER 2019

Location

FAA Identifier: FA41
Lat/Long: 30-26-38.0900N 081-36-40.1800W
30-26.634833N 081-36.669667W
30.4439139,-81.6111611
(estimated)
Elevation: 23 ft. / 7 m (estimated)
Variation: 03W (1985)
Time zone: UTC -5 (UTC -4 during Daylight Saving Time)
Zip code: 32226

Heliport Operations

Heliport use: Private use. Permission required prior to landing
Activation date: 03/1969
Control tower: no
ARTCC: JACKSONVILLE CENTER
FSS: GAINESVILLE FLIGHT SERVICE STATION
Attendance: MON-THUR 0530-1600
Wind indicator: yes
Segmented circle: no

Heliport Communications

UNICOM: 123.05
WX ASOS at JAX (5 nm NW): PHONE 904-741-4304
WX ASOS at CRG (8 nm SE): PHONE 904-646-4670
WX AWOS-3 at FHB (13 nm NE): 118.075 (904-277-7323)
WX AWOS-3 at HEG (14 nm SW): 119.275 (904-695-0334)
WX AWOS-3 at VQQ (19 nm SW): 125.275 (904-778-6934)
  • MULTICOM 123.025.

Nearby radio navigation aids

VOR radial/distance  VOR name  Freq  Var
CRGr323/8.2CRAIG VORTAC114.5003W
VQQr049/(20.0)CECIL VOR117.9003W
SGJr340/32.7ST AUGUSTINE VOR/DME109.4006W
SSIr197/37.4BRUNSWICK VORTAC109.8004W

 
NDB name  Hdg/Dist  Freq  Var  ID
DINNS103/9.934406WJA .--- .-
REYNOLDS012/28.733807WRYD .-. -.-- -..

Heliport Services

Fuel available: 100LL
Airframe service: NONE
Powerplant service: NONE

Runway Information

Helipad H1

Dimensions: 30 x 20 ft. / 9 x 6 m
Surface: concrete
Traffic pattern: leftleft

Heliport Ownership and Management from official FAA records

Ownership: Privately-owned
Owner: CITY OF JACKSONVILLE
1321 EASTPORT RD
JACKSONVILLE, FL 32218
Phone 904-696-4374
EXT 237
Manager: K. W. PEARSON
1321 EASTPORT RD
JACKSONVILLE, FL 32218
Phone 904-696-4374
EXT:229

Heliport Operational Statistics

Aircraft based on the field: 2
Helicopters: 2
    

Additional Remarks

A52-H1 40' WIRES 165' S; 60' TREES 450' W.
FOR CD CTC JACKSONVILLE APCH AT 904-741-0284.

Instrument Procedures

There are no published instrument procedures at FA41.

Some nearby airports with instrument procedures:

KJAX - Jacksonville International Airport (5 nm NW)
KCRG - Jacksonville Executive Airport at Craig (8 nm SE)
KNRB - Mayport Naval Station (Adm David L. McDonald Field) (10 nm E)
KFHB - Fernandina Beach Municipal Airport (13 nm NE)
KNIP - Jacksonville Naval Air Station (Towers Field) (13 nm S)
KHEG - Herlong Recreational Airport (14 nm SW)
KVQQ - Cecil Airport (19 nm SW)
 
Loc | Ops | Rwys | IFR | FBO | Links
Com | Nav | Svcs | Stats | Notes
Area around FA41 (Mosquito Control Heliport)
 
Road maps at: MapQuest Bing Google
 
Aerial photo
No photo
 
Sectional chart

 
Airport distance calculator
Flying to Mosquito Control Heliport? Find the distance to fly.

From to FA41

Sunrise and sunset
Times for 07-Dec-2019
 Local
(UTC-5)
 Zulu
(UTC)
Morning civil twilight06:4511:45
Sunrise07:1112:11
Sunset17:2522:25
Evening civil twilight17:5122:51

Current date and time
Zulu (UTC)  07-Dec-2019 09:42:15
Local (UTC-5)  07-Dec-2019 04:42:15
 
METAR
KJAX 
5nm NW 
070856Z 00000KT 10SM CLR 08/06 A3014 RMK AO2 SLP206 T00780061 58004
KCRG 
8nm SE 
070920Z AUTO 00000KT 9SM CLR 09/08 A3015 RMK AO2 T00890083
KNRB 
11nm E 
070852Z AUTO 06006KT 10SM CLR 16/12 A3014 RMK AO2 SLP206 T01560122 58005
KFHB 
13nm NE 
070915Z AUTO 32004KT 3 1/2SM BR SCT003 09/ A3015 RMK AO2 T0088////
KNIP 
14nm S 
070853Z 25003KT 10SM CLR 12/09 A3015 RMK AO2 SLP205 T01170089 58003 $
KHEG 
14nm SW 
070915Z AUTO 00000KT 3SM BR FEW045 07/06 A3017 RMK AO2
KVQQ 
20nm SW 
070915Z AUTO 00000KT 7SM CLR 05/04 A3015 RMK AO2
TAF
KJAX 
5nm NW 
070532Z 0706/0806 00000KT P6SM FEW200 FM071100 VRB03KT 4SM BR FEW003 SCT015 FM071330 VRB04KT P6SM FEW040 SCT100 SCT250 FM080400 04006KT P6SM BKN028 BKN100
KCRG 
8nm SE 
070532Z 0706/0806 00000KT 3SM BR FEW250 FM071300 01005KT P6SM FEW027 FM071500 04006KT P6SM FEW040 SCT100 SCT250 FM080400 04009KT P6SM BKN030 BKN100
KNRB 
11nm E 
0707/0807 VRB06KT 9999 SKC QNH3016INS FM071800 03010KT 9999 SCT030 SCT210 BKN250 QNH3018INS AUTOMATED SENSOR METWATCH 0707 TIL 0807 T12/0712Z T18/0718Z FN00218
KNIP 
14nm S 
0707/0807 VRB06KT 9999 SKC QNH3015INS FM072100 VRB06KT 9999 BKN100 QNH3014INS T13/0712Z T19/0720Z COR 0735 FN00218
KVQQ 
20nm SW 
070532Z 0706/0806 00000KT 1SM BR FEW250 FM071200 04005KT P6SM FEW015 SCT180 FM072300 04006KT P6SM BKN080 FM080400 04005KT 6SM BR BKN045
NOTAMs
Click for the latest NOTAMs
NOTAMs are issued by the DoD/FAA and will open in a separate window not controlled by AirNav.

 

 
 

Would you like to see your business listed on this page?

 If your business provides an interesting product or service to pilots, flight crews, aircraft, or users of the Mosquito Control Heliport, you should consider listing it here.  To start the listing process, click on the button below
 
Add a business
 

Other Pages about Mosquito Control Heliport

Update a link
 
Copyright © AirNav, LLC. All rights reserved. Privacy Policy  Contact